Time;durP1;ratioP1;P1;durP2;ratioP2;P2;SDS_P1;SDS_P2;PMS_P1;PMS_P2;Temp;Humidity;BMP_temperature;BMP_pressure;BME280_temperature;BME280_humidity;BME280_pressure;Samples;Min_cycle;Max_cycle;Signal;HPM_P1;HPM_P2
2024/02/03 00:01:48;;;;;;;3.00;0.95;;;19.10;52.50;;;;;;5020120;28;20029;-66
2024/02/03 00:04:14;;;;;;;2.25;0.90;;;19.00;52.40;;;;;;5024349;28;20034;-66
2024/02/03 00:06:39;;;;;;;1.90;1.23;;;19.00;53.10;;;;;;5020123;28;20421;-67
2024/02/03 00:09:08;;;;;;;2.30;1.20;;;19.00;52.40;;;;;;5024665;28;20036;-68
2024/02/03 00:11:34;;;;;;;2.38;1.38;;;19.00;52.40;;;;;;5021480;28;20706;-68
2024/02/03 00:14:00;;;;;;;1.40;1.10;;;19.00;52.40;;;;;;5021475;28;20140;-68
2024/02/03 00:16:26;;;;;;;2.10;1.30;;;19.00;52.50;;;;;;5025197;28;20029;-68
2024/02/03 00:18:51;;;;;;;3.55;1.45;;;19.00;52.50;;;;;;5023943;28;20037;-69
2024/02/03 00:21:17;;;;;;;4.85;1.50;;;19.10;52.50;;;;;;5026459;28;20040;-68
2024/02/03 00:23:45;;;;;;;2.10;1.10;;;19.00;52.40;;;;;;5027487;28;20492;-68
2024/02/03 00:26:11;;;;;;;2.15;1.05;;;19.00;53.10;;;;;;5028741;28;20031;-68
2024/02/03 00:28:37;;;;;;;1.92;1.00;;;19.00;52.40;;;;;;5022332;28;20528;-67
2024/02/03 00:31:03;;;;;;;4.22;1.20;;;19.00;52.40;;;;;;5027140;28;20160;-68
2024/02/03 00:33:29;;;;;;;1.35;1.10;;;19.00;52.40;;;;;;5005474;28;20112;-68
2024/02/03 00:35:54;;;;;;;1.15;1.00;;;19.10;52.40;;;;;;5027627;28;20091;-68
2024/02/03 00:38:20;;;;;;;2.50;1.20;;;19.00;52.40;;;;;;5024416;28;20025;-68
2024/02/03 00:40:46;;;;;;;2.20;1.25;;;19.00;52.40;;;;;;5007469;28;20120;-69
2024/02/03 00:43:14;;;;;;;1.27;1.00;;;19.00;52.40;;;;;;5026124;28;20255;-68
2024/02/03 00:45:40;;;;;;;0.90;0.85;;;19.00;52.40;;;;;;5028596;28;20047;-68
2024/02/03 00:48:06;;;;;;;1.63;1.02;;;19.00;52.40;;;;;;5019774;28;20029;-68
2024/02/03 00:50:32;;;;;;;1.90;1.10;;;19.00;52.40;;;;;;5023952;28;20060;-68
2024/02/03 00:52:57;;;;;;;1.77;1.15;;;19.10;52.40;;;;;;5027428;28;20041;-68
2024/02/03 00:55:23;;;;;;;1.00;0.90;;;19.00;52.40;;;;;;5026185;28;20527;-68
2024/02/03 00:57:48;;;;;;;1.05;0.90;;;19.00;52.40;;;;;;5023562;28;20180;-68
2024/02/03 01:00:14;;;;;;;1.67;0.90;;;19.00;52.40;;;;;;5025812;28;20025;-67
2024/02/03 01:02:41;;;;;;;4.20;1.00;;;19.00;52.40;;;;;;5006096;28;20497;-68
2024/02/03 01:05:07;;;;;;;2.85;1.15;;;19.00;52.40;;;;;;5025640;28;20035;-68
2024/02/03 01:07:33;;;;;;;1.10;1.00;;;19.00;52.40;;;;;;5026994;28;20037;-68
2024/02/03 01:09:58;;;;;;;1.52;1.15;;;19.00;52.40;;;;;;5026216;28;20120;-68
2024/02/03 01:12:24;;;;;;;2.45;0.90;;;19.00;52.40;;;;;;5025590;28;20096;-68
2024/02/03 01:14:49;;;;;;;1.92;1.20;;;19.00;52.40;;;;;;5024988;28;20137;-68
2024/02/03 01:17:15;;;;;;;3.17;0.85;;;19.00;52.40;;;;;;5006003;28;20037;-68
2024/02/03 01:19:40;;;;;;;1.52;1.00;;;19.00;52.40;;;;;;5025645;28;20141;-67
2024/02/03 01:22:06;;;;;;;1.17;0.90;;;19.00;52.40;;;;;;5027278;28;20763;-68
2024/02/03 01:24:32;;;;;;;1.58;1.10;;;19.00;52.40;;;;;;5022515;28;20084;-68
2024/02/03 01:26:57;;;;;;;2.15;0.93;;;19.00;52.40;;;;;;5021387;28;20036;-68
2024/02/03 01:29:23;;;;;;;1.65;0.90;;;19.10;52.50;;;;;;5014729;28;20037;-68
2024/02/03 01:31:48;;;;;;;1.65;1.08;;;19.00;52.40;;;;;;5024561;28;20068;-69
2024/02/03 01:34:13;;;;;;;1.38;0.90;;;19.00;52.50;;;;;;5023791;28;20025;-68
2024/02/03 01:36:39;;;;;;;1.30;0.93;;;19.00;52.60;;;;;;5004065;28;20017;-67
2024/02/03 01:39:06;;;;;;;1.00;0.90;;;18.90;52.50;;;;;;5006277;28;20637;-68
2024/02/03 01:41:32;;;;;;;1.77;1.00;;;18.90;53.20;;;;;;5003880;28;20026;-69
2024/02/03 01:43:57;;;;;;;1.58;1.02;;;18.90;52.70;;;;;;5022514;28;20040;-68
2024/02/03 01:46:23;;;;;;;1.67;1.20;;;18.80;52.70;;;;;;5007356;28;20525;-67
2024/02/03 01:48:49;;;;;;;2.55;1.30;;;18.80;52.80;;;;;;5020148;28;20163;-68
2024/02/03 01:51:18;;;;;;;1.30;1.20;;;18.80;52.80;;;;;;5024899;28;20421;-68
2024/02/03 01:53:46;;;;;;;1.52;1.10;;;18.80;52.90;;;;;;5022161;28;20025;-68
2024/02/03 01:56:14;;;;;;;1.58;1.00;;;18.80;53.00;;;;;;5023774;28;20037;-68
2024/02/03 01:58:39;;;;;;;1.50;0.93;;;18.70;52.90;;;;;;5019615;28;20591;-67
2024/02/03 02:01:06;;;;;;;1.95;1.15;;;18.80;53.00;;;;;;5001918;28;20130;-68
2024/02/03 02:03:32;;;;;;;1.50;1.15;;;18.70;52.90;;;;;;5021657;28;20083;-67
2024/02/03 02:05:57;;;;;;;1.00;0.90;;;18.80;52.90;;;;;;5024299;28;20125;-67
2024/02/03 02:08:36;;;;;;;1.25;1.00;;;18.80;52.90;;;;;;5019985;28;20073;-67
2024/02/03 02:11:03;;;;;;;1.25;1.00;;;18.80;52.80;;;;;;5019295;28;20156;-67
2024/02/03 02:13:29;;;;;;;2.15;1.05;;;18.90;52.80;;;;;;5024179;28;20049;-68
2024/02/03 02:15:54;;;;;;;1.30;0.95;;;18.90;52.70;;;;;;5020775;28;20052;-68
2024/02/03 02:18:20;;;;;;;2.03;1.00;;;18.90;52.60;;;;;;5002831;28;20036;-68
2024/02/03 02:20:45;;;;;;;1.60;0.98;;;18.90;52.60;;;;;;5018915;28;20052;-68
2024/02/03 02:23:11;;;;;;;1.17;0.80;;;18.90;52.50;;;;;;5021096;28;20037;-68
2024/02/03 02:25:36;;;;;;;0.90;0.77;;;18.90;52.50;;;;;;5021321;28;20108;-68
2024/02/03 02:28:02;;;;;;;1.30;1.08;;;19.00;52.50;;;;;;5018800;28;20699;-68
2024/02/03 02:30:28;;;;;;;1.38;0.80;;;19.00;52.40;;;;;;5023740;28;20053;-68
2024/02/03 02:32:53;;;;;;;1.95;1.00;;;19.00;52.40;;;;;;5024040;28;20041;-68
2024/02/03 02:35:19;;;;;;;1.63;0.88;;;19.00;52.30;;;;;;5025706;28;20087;-69
2024/02/03 02:37:44;;;;;;;1.45;0.98;;;19.10;52.40;;;;;;5023160;28;20061;-68
2024/02/03 02:40:11;;;;;;;1.70;0.85;;;19.10;52.30;;;;;;5007932;28;20121;-69
2024/02/03 02:42:37;;;;;;;1.23;0.95;;;19.10;52.30;;;;;;5007726;28;20112;-68
2024/02/03 02:45:03;;;;;;;2.38;0.90;;;19.10;52.20;;;;;;5020504;28;20689;-68
2024/02/03 02:47:28;;;;;;;1.30;0.85;;;19.10;52.10;;;;;;5019633;28;20087;-68
2024/02/03 02:49:54;;;;;;;1.90;0.88;;;19.20;52.20;;;;;;5004165;28;20037;-68
2024/02/03 02:52:19;;;;;;;1.50;1.10;;;19.20;52.10;;;;;;5019620;28;20041;-68
2024/02/03 02:54:45;;;;;;;1.40;0.90;;;19.20;52.10;;;;;;5019653;28;20045;-68
2024/02/03 02:57:10;;;;;;;1.10;1.00;;;19.20;52.10;;;;;;5018087;28;20143;-68
2024/02/03 02:59:36;;;;;;;1.33;0.88;;;19.20;52.10;;;;;;5019279;28;20037;-68
2024/02/03 03:02:02;;;;;;;1.25;1.05;;;19.20;52.10;;;;;;5010562;28;20484;-67
2024/02/03 03:04:28;;;;;;;1.00;0.70;;;19.20;52.10;;;;;;5013773;28;20041;-68
2024/02/03 03:06:53;;;;;;;1.30;0.90;;;19.20;52.00;;;;;;5012845;28;20559;-68
2024/02/03 03:09:19;;;;;;;1.65;1.20;;;19.20;52.00;;;;;;5014540;28;20039;-68
2024/02/03 03:11:44;;;;;;;1.52;0.70;;;19.20;52.00;;;;;;4999107;28;20041;-68
2024/02/03 03:14:11;;;;;;;1.60;0.85;;;19.20;52.00;;;;;;5019447;28;20427;-68
2024/02/03 03:16:36;;;;;;;0.90;0.80;;;19.20;52.10;;;;;;5015086;28;20037;-68
2024/02/03 03:19:01;;;;;;;2.42;0.90;;;19.20;52.10;;;;;;5018722;28;20033;-68
2024/02/03 03:21:27;;;;;;;0.90;0.60;;;19.20;52.10;;;;;;4997706;28;20630;-68
2024/02/03 03:23:52;;;;;;;1.35;0.82;;;19.20;52.10;;;;;;5001718;28;20396;-68
2024/02/03 03:26:18;;;;;;;1.48;0.90;;;19.20;52.10;;;;;;4998537;28;20033;-68
2024/02/03 03:28:44;;;;;;;1.50;0.70;;;19.20;52.20;;;;;;5001937;28;20037;-68
2024/02/03 03:31:09;;;;;;;1.15;1.05;;;19.20;52.20;;;;;;5017550;28;20037;-68
2024/02/03 03:33:35;;;;;;;1.27;0.93;;;19.10;52.20;;;;;;5012781;28;20037;-68
2024/02/03 03:36:00;;;;;;;0.77;0.73;;;19.10;52.20;;;;;;4993469;28;20033;-68
2024/02/03 03:38:27;;;;;;;1.10;0.90;;;19.10;52.30;;;;;;4999037;28;20045;-68
2024/02/03 03:40:53;;;;;;;1.48;0.80;;;19.10;52.30;;;;;;5018629;28;20515;-68
2024/02/03 03:43:18;;;;;;;1.48;0.88;;;19.10;52.30;;;;;;5024051;28;20025;-68
2024/02/03 03:45:44;;;;;;;1.13;0.65;;;19.10;52.30;;;;;;5019142;28;20025;-68
2024/02/03 03:48:09;;;;;;;0.70;0.70;;;19.10;52.40;;;;;;5020450;28;20022;-68
2024/02/03 03:50:34;;;;;;;0.70;0.70;;;19.10;52.40;;;;;;5017272;28;20045;-68
2024/02/03 03:53:00;;;;;;;1.48;0.80;;;19.00;52.30;;;;;;5005479;28;20041;-68
2024/02/03 03:55:25;;;;;;;0.80;0.70;;;19.00;52.40;;;;;;5020717;28;20121;-68
2024/02/03 03:57:51;;;;;;;1.17;0.90;;;19.00;52.40;;;;;;5000299;28;20109;-70
2024/02/03 04:00:17;;;;;;;0.70;0.63;;;19.00;52.40;;;;;;4999750;28;20029;-68
2024/02/03 04:02:43;;;;;;;1.63;0.95;;;19.00;52.40;;;;;;4994213;28;20069;-69
2024/02/03 04:05:09;;;;;;;1.30;1.00;;;19.00;52.50;;;;;;4994667;28;20137;-68
2024/02/03 04:07:35;;;;;;;1.33;0.85;;;19.00;52.40;;;;;;4998587;28;20033;-69
2024/02/03 04:10:00;;;;;;;0.80;0.80;;;19.00;52.50;;;;;;5020475;28;20037;-68
2024/02/03 04:12:26;;;;;;;0.70;0.70;;;19.00;52.50;;;;;;5019059;28;20083;-68
2024/02/03 04:14:51;;;;;;;0.60;0.60;;;19.00;52.50;;;;;;5002562;28;20037;-68
2024/02/03 04:17:17;;;;;;;1.20;0.65;;;19.00;52.50;;;;;;4998649;28;20374;-69
2024/02/03 04:19:43;;;;;;;0.70;0.60;;;19.00;52.50;;;;;;5018213;28;20504;-69
2024/02/03 04:22:12;;;;;;;1.30;0.80;;;19.00;52.50;;;;;;5001438;28;20517;-69
2024/02/03 04:24:38;;;;;;;0.98;0.60;;;19.00;52.50;;;;;;5001786;28;20045;-68
2024/02/03 04:27:04;;;;;;;0.98;0.60;;;19.00;52.50;;;;;;5002136;28;20644;-69
2024/02/03 04:29:29;;;;;;;2.15;0.60;;;19.00;52.50;;;;;;5018233;28;20321;-68
2024/02/03 04:31:55;;;;;;;0.95;0.70;;;19.00;52.50;;;;;;5001796;28;20038;-69
2024/02/03 04:34:20;;;;;;;1.40;0.90;;;19.00;52.50;;;;;;5004050;28;20020;-69
2024/02/03 04:36:46;;;;;;;0.52;0.52;;;19.00;52.50;;;;;;5002486;28;20021;-68
2024/02/03 04:39:12;;;;;;;0.65;0.60;;;19.00;52.50;;;;;;5023447;28;20403;-70
2024/02/03 04:41:38;;;;;;;1.20;0.75;;;19.00;52.50;;;;;;5001822;28;20044;-68
2024/02/03 04:44:04;;;;;;;0.70;0.65;;;19.00;52.50;;;;;;5004237;28;20124;-68
2024/02/03 04:46:30;;;;;;;1.55;0.68;;;19.00;52.50;;;;;;4993943;28;20034;-69
2024/02/03 04:48:55;;;;;;;0.63;0.50;;;19.00;52.50;;;;;;4984095;28;20324;-70
2024/02/03 04:51:21;;;;;;;1.05;0.82;;;19.00;52.50;;;;;;5003577;28;20049;-70
2024/02/03 04:53:46;;;;;;;0.93;0.80;;;19.00;52.50;;;;;;5001859;28;20064;-69
2024/02/03 04:56:12;;;;;;;0.93;0.60;;;19.00;52.50;;;;;;5021790;28;20028;-69
2024/02/03 04:58:37;;;;;;;0.90;0.63;;;19.00;52.50;;;;;;4997901;28;20070;-68
2024/02/03 05:01:04;;;;;;;1.75;0.88;;;18.90;52.40;;;;;;5002549;28;20365;-68
2024/02/03 05:03:31;;;;;;;1.33;0.55;;;19.00;52.40;;;;;;5002641;28;20022;-69
2024/02/03 05:06:01;;;;;;;0.93;0.57;;;19.00;52.40;;;;;;5005887;28;20108;-67
2024/02/03 05:08:27;;;;;;;0.60;0.60;;;19.00;52.40;;;;;;5025340;28;20401;-68
2024/02/03 05:10:52;;;;;;;0.47;0.43;;;19.00;52.40;;;;;;5023087;28;20156;-67
2024/02/03 05:13:18;;;;;;;0.98;0.73;;;19.00;52.40;;;;;;5005917;28;20032;-69
2024/02/03 05:15:43;;;;;;;0.50;0.50;;;19.00;52.40;;;;;;5006759;28;20183;-68
2024/02/03 05:18:09;;;;;;;1.13;0.70;;;19.00;52.40;;;;;;5003410;28;20025;-67
2024/02/03 05:20:34;;;;;;;0.77;0.50;;;19.00;52.40;;;;;;5023491;28;20037;-68
2024/02/03 05:23:00;;;;;;;1.00;0.45;;;19.00;52.40;;;;;;5022016;28;20033;-68
2024/02/03 05:25:26;;;;;;;0.65;0.65;;;19.00;52.40;;;;;;5020596;28;20037;-68
2024/02/03 05:27:51;;;;;;;0.60;0.60;;;19.00;52.40;;;;;;5004671;28;20034;-68
2024/02/03 05:30:17;;;;;;;0.65;0.60;;;19.00;52.40;;;;;;5004088;28;20485;-67
2024/02/03 05:32:42;;;;;;;1.05;0.60;;;19.00;52.40;;;;;;5003417;28;20531;-67
2024/02/03 05:35:08;;;;;;;0.80;0.55;;;19.00;52.40;;;;;;5005688;28;20121;-68
2024/02/03 05:37:33;;;;;;;0.60;0.45;;;19.00;52.40;;;;;;5003262;28;20083;-67
2024/02/03 05:39:59;;;;;;;1.77;0.75;;;19.00;52.40;;;;;;5005749;28;20039;-68
2024/02/03 05:42:29;;;;;;;0.63;0.60;;;19.00;52.40;;;;;;5025723;28;20178;-68
2024/02/03 05:44:54;;;;;;;0.43;0.40;;;19.00;52.30;;;;;;5005708;28;20496;-67
2024/02/03 05:47:20;;;;;;;0.55;0.55;;;19.00;52.30;;;;;;5001279;28;20029;-67
2024/02/03 05:49:45;;;;;;;0.63;0.63;;;19.00;52.30;;;;;;5022387;28;20030;-67
2024/02/03 05:52:11;;;;;;;0.40;0.40;;;19.00;52.30;;;;;;5026578;28;20029;-68
2024/02/03 05:54:36;;;;;;;0.68;0.65;;;19.00;52.30;;;;;;5025601;28;20050;-68
2024/02/03 05:57:02;;;;;;;0.90;0.60;;;19.00;52.30;;;;;;5026586;28;20026;-68
2024/02/03 05:59:28;;;;;;;0.55;0.55;;;19.00;52.30;;;;;;5025794;28;20428;-68
2024/02/03 06:01:53;;;;;;;1.17;1.00;;;19.10;52.30;;;;;;5032245;28;20168;-67
2024/02/03 06:04:19;;;;;;;0.68;0.50;;;19.00;52.30;;;;;;5028534;28;20033;-68
2024/02/03 06:06:44;;;;;;;1.00;0.88;;;19.00;52.30;;;;;;5024261;28;20064;-65
2024/02/03 06:09:09;;;;;;;2.28;0.55;;;19.00;52.20;;;;;;5024331;28;20037;-67
2024/02/03 06:11:35;;;;;;;0.90;0.50;;;19.00;52.30;;;;;;5023531;28;20439;-67
2024/02/03 06:14:01;;;;;;;0.63;0.40;;;19.00;52.90;;;;;;5023762;28;20026;-68
2024/02/03 06:16:26;;;;;;;0.60;0.47;;;19.00;52.40;;;;;;5025564;28;20041;-67
2024/02/03 06:18:52;;;;;;;0.73;0.50;;;19.00;52.30;;;;;;5022680;28;20408;-67
2024/02/03 06:21:17;;;;;;;1.08;0.50;;;19.00;52.40;;;;;;5025011;28;20530;-66
2024/02/03 06:23:43;;;;;;;1.52;0.32;;;19.00;52.40;;;;;;5021178;28;20029;-66
2024/02/03 06:26:09;;;;;;;0.93;0.70;;;19.00;52.40;;;;;;5023370;28;20129;-66
2024/02/03 06:28:35;;;;;;;0.68;0.50;;;19.00;52.40;;;;;;5001884;28;20034;-67
2024/02/03 06:31:01;;;;;;;0.52;0.52;;;19.00;52.40;;;;;;5017445;28;20503;-66
2024/02/03 06:33:27;;;;;;;0.65;0.45;;;19.00;52.40;;;;;;5021263;28;20040;-66
2024/02/03 06:35:53;;;;;;;1.42;0.57;;;19.00;52.40;;;;;;5022353;28;20548;-66
2024/02/03 06:38:18;;;;;;;0.57;0.50;;;19.00;52.40;;;;;;5017072;28;20091;-67
2024/02/03 06:40:44;;;;;;;0.60;0.50;;;19.00;52.40;;;;;;5022337;28;20047;-67
2024/02/03 06:43:09;;;;;;;2.67;0.50;;;19.00;52.40;;;;;;5020851;28;20037;-67
2024/02/03 06:45:35;;;;;;;1.08;0.40;;;19.00;52.40;;;;;;5022027;28;20052;-66
2024/02/03 06:48:01;;;;;;;3.17;1.00;;;19.00;52.40;;;;;;5024943;28;20087;-67
2024/02/03 06:50:26;;;;;;;0.68;0.57;;;19.00;52.40;;;;;;5002429;28;20037;-66
2024/02/03 06:52:51;;;;;;;0.93;0.60;;;19.00;52.40;;;;;;5024107;28;20033;-67
2024/02/03 06:55:17;;;;;;;1.35;0.77;;;19.00;52.40;;;;;;5021278;28;20052;-67
2024/02/03 06:57:42;;;;;;;2.45;1.02;;;19.00;52.50;;;;;;5023962;28;20049;-66
2024/02/03 07:00:10;;;;;;;0.70;0.57;;;19.00;52.40;;;;;;5019187;28;20507;-67
2024/02/03 07:02:35;;;;;;;0.93;0.82;;;19.00;52.50;;;;;;5022867;28;20084;-67
2024/02/03 07:05:01;;;;;;;1.13;0.90;;;19.00;52.50;;;;;;5024081;28;20030;-66
2024/02/03 07:07:26;;;;;;;1.52;0.90;;;19.00;52.50;;;;;;5024154;28;20036;-66
2024/02/03 07:09:58;;;;;;;0.95;0.85;;;19.00;52.50;;;;;;5022403;28;20033;-66
2024/02/03 07:12:24;;;;;;;1.63;0.90;;;19.00;52.50;;;;;;5017654;28;20032;-66
2024/02/03 07:14:49;;;;;;;1.35;1.00;;;19.00;52.40;;;;;;5021694;28;20022;-66
2024/02/03 07:17:15;;;;;;;1.80;1.05;;;19.00;53.10;;;;;;5017174;28;20021;-66
2024/02/03 07:19:40;;;;;;;0.60;0.60;;;19.00;52.40;;;;;;5019714;28;20075;-67
2024/02/03 07:22:06;;;;;;;1.55;1.15;;;19.00;52.40;;;;;;5021764;28;20031;-67
2024/02/03 07:24:31;;;;;;;0.70;0.70;;;19.00;52.40;;;;;;5022395;28;20021;-66
2024/02/03 07:26:57;;;;;;;1.05;0.60;;;19.00;52.40;;;;;;5019594;28;20103;-66
2024/02/03 07:29:22;;;;;;;1.20;0.90;;;19.00;52.40;;;;;;5019441;28;20408;-66
2024/02/03 07:31:48;;;;;;;1.20;0.93;;;19.10;52.40;;;;;;5023285;28;20026;-67
2024/02/03 07:34:13;;;;;;;1.90;1.00;;;19.10;52.30;;;;;;5021170;28;20701;-67
2024/02/03 07:36:38;;;;;;;1.00;0.80;;;19.10;52.30;;;;;;5016991;28;20041;-65
2024/02/03 07:39:05;;;;;;;1.10;0.93;;;19.10;52.30;;;;;;5022905;28;20056;-66
2024/02/03 07:41:31;;;;;;;1.38;0.85;;;19.10;52.30;;;;;;5002350;28;20078;-67
2024/02/03 07:43:56;;;;;;;2.40;1.05;;;19.10;52.20;;;;;;5021523;28;20033;-66
2024/02/03 07:46:22;;;;;;;1.10;0.75;;;19.10;52.20;;;;;;5022097;28;20033;-67
2024/02/03 07:48:47;;;;;;;1.45;0.90;;;19.10;52.10;;;;;;5018011;28;20026;-66
2024/02/03 07:51:13;;;;;;;0.95;0.75;;;19.20;52.20;;;;;;5001165;28;20041;-66
2024/02/03 07:53:38;;;;;;;1.23;0.88;;;19.20;52.20;;;;;;5022427;28;20041;-67
2024/02/03 07:56:04;;;;;;;1.38;1.00;;;19.20;52.20;;;;;;5022094;28;20108;-65
2024/02/03 07:58:29;;;;;;;1.40;0.90;;;19.20;52.10;;;;;;5022604;28;20030;-66
2024/02/03 08:00:56;;;;;;;2.00;0.70;;;19.20;52.70;;;;;;5021501;28;20034;-66
2024/02/03 08:03:22;;;;;;;2.88;0.88;;;19.30;52.10;;;;;;5022005;28;20033;-66
2024/02/03 08:05:47;;;;;;;1.60;0.93;;;19.20;52.10;;;;;;5019140;28;20038;-67
2024/02/03 08:08:13;;;;;;;2.60;1.00;;;19.30;52.10;;;;;;5019319;28;20064;-66
2024/02/03 08:10:38;;;;;;;5.32;1.63;;;19.30;52.20;;;;;;5020359;28;20111;-66
2024/02/03 08:13:04;;;;;;;3.63;1.05;;;19.20;52.30;;;;;;5021747;28;20168;-67
2024/02/03 08:15:29;;;;;;;2.97;0.88;;;19.30;52.30;;;;;;5019777;28;20017;-67
2024/02/03 08:17:55;;;;;;;3.05;1.20;;;19.30;52.30;;;;;;5023507;28;20412;-65
2024/02/03 08:20:20;;;;;;;4.05;1.15;;;19.30;52.30;;;;;;5021692;28;20107;-67
2024/02/03 08:22:45;;;;;;;5.43;0.98;;;19.30;52.40;;;;;;5024254;28;20087;-66
2024/02/03 08:25:11;;;;;;;5.78;1.88;;;19.30;52.70;;;;;;5021018;28;20045;-68
2024/02/03 08:27:36;;;;;;;8.20;2.92;;;19.20;52.80;;;;;;5001888;28;20044;-67
2024/02/03 08:30:03;;;;;;;8.35;3.28;;;19.30;52.90;;;;;;5016184;28;20483;-68
2024/02/03 08:32:29;;;;;;;9.30;3.08;;;19.20;52.60;;;;;;5021201;28;20108;-67
2024/02/03 08:34:54;;;;;;;8.27;3.33;;;19.20;52.60;;;;;;5023181;28;20704;-70
2024/02/03 08:37:20;;;;;;;13.15;3.42;;;19.20;52.70;;;;;;5023949;28;20025;-69
2024/02/03 08:39:45;;;;;;;8.07;3.50;;;19.20;52.60;;;;;;5027479;28;20463;-68
2024/02/03 08:42:11;;;;;;;5.75;3.05;;;19.10;52.60;;;;;;5024002;28;20046;-66
2024/02/03 08:44:36;;;;;;;7.05;3.90;;;19.10;52.70;;;;;;5026564;28;20040;-67
2024/02/03 08:47:02;;;;;;;7.90;3.25;;;19.10;52.70;;;;;;5022701;28;20439;-68
2024/02/03 08:49:28;;;;;;;8.95;3.92;;;19.10;52.70;;;;;;5025414;28;20036;-66
2024/02/03 08:51:54;;;;;;;9.02;3.28;;;19.10;52.70;;;;;;5005335;28;20037;-68
2024/02/03 08:54:19;;;;;;;10.90;3.72;;;19.10;52.80;;;;;;5025625;28;20037;-67
2024/02/03 08:56:44;;;;;;;7.80;3.25;;;19.00;52.70;;;;;;5023787;28;20042;-67
2024/02/03 08:59:10;;;;;;;6.55;3.22;;;19.00;52.70;;;;;;5026698;28;20432;-66
2024/02/03 09:01:35;;;;;;;6.82;2.78;;;19.00;52.80;;;;;;5025213;28;20488;-69
2024/02/03 09:04:01;;;;;;;8.75;3.38;;;19.00;52.70;;;;;;5026722;28;20033;-68
2024/02/03 09:06:26;;;;;;;6.80;3.10;;;19.00;52.70;;;;;;5024835;28;20130;-68
2024/02/03 09:08:52;;;;;;;7.57;2.92;;;19.00;52.80;;;;;;5026388;28;20041;-67
2024/02/03 09:11:18;;;;;;;12.38;3.97;;;19.00;52.80;;;;;;5023394;28;20091;-65
2024/02/03 09:13:44;;;;;;;7.47;3.35;;;19.00;52.80;;;;;;5025999;28;20399;-67
2024/02/03 09:16:09;;;;;;;8.85;3.28;;;19.00;52.80;;;;;;5004982;28;20038;-67
2024/02/03 09:18:35;;;;;;;7.75;3.10;;;19.00;52.90;;;;;;5027618;28;20025;-66
2024/02/03 09:21:00;;;;;;;7.00;3.15;;;19.00;52.80;;;;;;5027792;28;20045;-67
2024/02/03 09:23:26;;;;;;;6.35;2.95;;;19.00;52.80;;;;;;5026548;28;20030;-65
2024/02/03 09:25:51;;;;;;;6.15;2.70;;;18.90;52.80;;;;;;5030574;28;20069;-64
2024/02/03 09:28:17;;;;;;;10.07;4.13;;;19.00;53.20;;;;;;5025257;28;20034;-65
2024/02/03 09:30:43;;;;;;;9.82;4.30;;;19.10;53.30;;;;;;5028944;28;20045;-66
2024/02/03 09:33:08;;;;;;;9.68;4.43;;;19.10;53.70;;;;;;5025259;28;20034;-66
2024/02/03 09:35:34;;;;;;;12.52;5.75;;;19.10;53.90;;;;;;5026524;28;20400;-64
2024/02/03 09:37:59;;;;;;;16.65;5.55;;;19.10;54.00;;;;;;5022948;28;20366;-66
2024/02/03 09:40:25;;;;;;;13.75;6.03;;;19.10;54.30;;;;;;5024340;28;20082;-63
2024/02/03 09:42:51;;;;;;;13.70;5.75;;;19.10;54.50;;;;;;5024184;28;20417;-65
2024/02/03 09:45:20;;;;;;;12.45;5.32;;;19.10;54.50;;;;;;5024175;28;20034;-65
2024/02/03 09:47:46;;;;;;;14.82;5.30;;;19.10;54.60;;;;;;5022822;28;20117;-64
2024/02/03 09:50:11;;;;;;;11.10;5.05;;;19.00;54.50;;;;;;5024728;28;20438;-64
2024/02/03 09:52:37;;;;;;;12.77;4.60;;;19.00;54.80;;;;;;5025261;28;20033;-64
2024/02/03 09:55:04;;;;;;;10.70;4.47;;;19.00;54.80;;;;;;5024844;28;20025;-65
2024/02/03 09:57:30;;;;;;;13.82;4.68;;;19.00;55.00;;;;;;5004970;28;20040;-64
2024/02/03 09:59:57;;;;;;;8.00;3.75;;;19.00;55.20;;;;;;5005942;28;20029;-64
2024/02/03 10:02:23;;;;;;;7.75;4.07;;;19.00;55.60;;;;;;5023915;28;20026;-66
2024/02/03 10:04:49;;;;;;;8.32;3.67;;;19.00;55.50;;;;;;5025075;28;20511;-65
2024/02/03 10:07:21;;;;;;;11.15;4.05;;;19.00;56.30;;;;;;5020481;28;20045;-63
2024/02/03 10:09:47;;;;;;;7.88;3.97;;;19.10;56.10;;;;;;5024804;28;20124;-66
2024/02/03 10:12:22;;;;;;;12.38;3.70;;;19.10;55.90;;;;;;5024322;28;20025;-67
2024/02/03 10:14:59;;;;;;;8.18;2.92;;;19.10;55.80;;;;;;5023473;28;20104;-67
2024/02/03 10:17:24;;;;;;;7.82;3.72;;;19.00;55.50;;;;;;5022647;28;20022;-67
2024/02/03 10:19:49;;;;;;;7.97;3.38;;;19.00;55.30;;;;;;5025710;28;20491;-67
2024/02/03 10:22:15;;;;;;;9.10;2.95;;;19.00;55.00;;;;;;5019952;28;20108;-65
2024/02/03 10:24:40;;;;;;;6.68;3.55;;;19.00;54.80;;;;;;5023717;28;20045;-66
2024/02/03 10:27:06;;;;;;;6.63;3.22;;;18.90;54.60;;;;;;5022140;28;20041;-66
2024/02/03 10:29:33;;;;;;;7.43;2.88;;;19.00;54.50;;;;;;5020770;28;20530;-66
2024/02/03 10:31:58;;;;;;;7.50;2.97;;;18.90;54.50;;;;;;5021409;28;20095;-66
2024/02/03 10:34:26;;;;;;;6.82;2.88;;;19.00;54.60;;;;;;5021320;28;20397;-67
2024/02/03 10:36:51;;;;;;;6.95;3.20;;;19.00;54.60;;;;;;5021709;28;20049;-66
2024/02/03 10:39:17;;;;;;;10.52;3.47;;;19.00;54.20;;;;;;5021129;28;20033;-66
2024/02/03 10:41:46;;;;;;;5.13;2.72;;;19.00;54.00;;;;;;5022316;28;20404;-66
2024/02/03 10:44:16;;;;;;;6.75;2.70;;;19.00;54.10;;;;;;5019733;28;20079;-66
2024/02/03 10:46:43;;;;;;;8.60;2.70;;;19.00;54.20;;;;;;5021398;28;20037;-66
2024/02/03 10:49:14;;;;;;;7.35;2.55;;;19.00;54.10;;;;;;5002070;28;20411;-66
2024/02/03 10:51:42;;;;;;;4.85;2.03;;;19.00;54.10;;;;;;5018699;28;20057;-66
2024/02/03 10:54:17;;;;;;;6.70;2.75;;;19.00;54.00;;;;;;5021754;28;20037;-66
2024/02/03 10:56:46;;;;;;;6.50;2.58;;;19.00;53.90;;;;;;5021656;28;20056;-66
2024/02/03 10:59:18;;;;;;;5.30;2.17;;;19.00;54.00;;;;;;5020857;28;20117;-66
2024/02/03 11:01:44;;;;;;;8.32;2.25;;;19.00;53.90;;;;;;5021177;28;20037;-67
2024/02/03 11:04:13;;;;;;;6.05;1.73;;;19.00;53.80;;;;;;5003217;28;20029;-66
2024/02/03 11:06:39;;;;;;;6.13;2.25;;;19.00;53.70;;;;;;5020600;28;20500;-66
2024/02/03 11:09:15;;;;;;;5.35;2.00;;;19.10;53.60;;;;;;5003511;28;20035;-66
2024/02/03 11:11:44;;;;;;;3.35;1.65;;;19.10;53.50;;;;;;5018844;28;20486;-67
2024/02/03 11:14:15;;;;;;;3.55;1.63;;;19.10;53.40;;;;;;5021701;28;20036;-67
2024/02/03 11:16:40;;;;;;;5.43;1.50;;;19.10;53.30;;;;;;5021244;28;20022;-65
2024/02/03 11:19:12;;;;;;;4.90;1.60;;;19.10;53.30;;;;;;5022662;28;20018;-66
2024/02/03 11:21:42;;;;;;;6.30;1.45;;;19.10;53.80;;;;;;4996210;28;20120;-67
2024/02/03 11:24:09;;;;;;;2.80;1.55;;;19.10;53.20;;;;;;5021329;28;20037;-67
2024/02/03 11:26:39;;;;;;;6.22;1.45;;;19.10;53.10;;;;;;5023651;28;20064;-66
2024/02/03 11:29:05;;;;;;;4.10;1.50;;;19.10;53.20;;;;;;5022313;28;20095;-67
2024/02/03 11:31:31;;;;;;;4.35;1.63;;;19.10;53.10;;;;;;5022582;28;20048;-65
2024/02/03 11:33:57;;;;;;;3.33;1.60;;;19.10;53.20;;;;;;5013156;28;20041;-65
2024/02/03 11:36:24;;;;;;;5.78;1.67;;;19.20;53.10;;;;;;5014534;28;20048;-66
2024/02/03 11:38:50;;;;;;;6.85;1.73;;;19.30;53.10;;;;;;5010673;28;20104;-66
2024/02/03 11:41:16;;;;;;;7.28;1.80;;;19.30;53.00;;;;;;5012282;28;20044;-65
2024/02/03 11:43:42;;;;;;;7.30;2.20;;;19.40;53.10;;;;;;5012338;28;20042;-65
2024/02/03 11:46:10;;;;;;;4.60;1.60;;;19.40;53.10;;;;;;5015840;28;20065;-65
2024/02/03 11:48:37;;;;;;;5.32;1.70;;;19.40;53.10;;;;;;5012951;28;20436;-66
2024/02/03 11:51:03;;;;;;;5.63;1.88;;;19.40;53.10;;;;;;4999200;28;20428;-67
2024/02/03 11:53:29;;;;;;;4.32;1.45;;;19.40;53.20;;;;;;5015011;28;20076;-67
2024/02/03 11:55:56;;;;;;;5.10;1.85;;;19.40;53.80;;;;;;5011292;28;20053;-66
2024/02/03 11:58:23;;;;;;;2.97;1.35;;;19.30;53.10;;;;;;4994933;28;20034;-66
2024/02/03 12:01:00;;;;;;;4.03;2.13;;;19.30;53.10;;;;;;5014620;28;20064;-66
2024/02/03 12:03:26;;;;;;;4.82;1.55;;;19.30;53.10;;;;;;5017354;28;20036;-66
2024/02/03 12:05:51;;;;;;;4.78;1.58;;;19.20;53.10;;;;;;5011364;28;20045;-66
2024/02/03 12:08:17;;;;;;;4.90;1.48;;;19.20;53.20;;;;;;5006802;28;20034;-67
2024/02/03 12:10:42;;;;;;;4.68;1.88;;;19.30;55.70;;;;;;5011704;28;20450;-66
2024/02/03 12:13:08;;;;;;;3.30;1.70;;;19.40;54.80;;;;;;5015553;28;20515;-65
2024/02/03 12:15:33;;;;;;;5.32;2.28;;;19.40;54.70;;;;;;5020083;28;20508;-66
2024/02/03 12:18:03;;;;;;;43.33;18.73;;;19.40;54.90;;;;;;5014879;28;20069;-65
2024/02/03 12:20:28;;;;;;;58.55;24.60;;;19.40;57.70;;;;;;5020148;28;20072;-65
2024/02/03 12:22:59;;;;;;;53.88;24.88;;;19.40;55.80;;;;;;5013385;28;20072;-65
2024/02/03 12:25:26;;;;;;;58.83;28.40;;;19.40;56.30;;;;;;4998272;28;20026;-65
2024/02/03 12:27:52;;;;;;;64.93;28.98;;;19.40;56.10;;;;;;5018380;28;20639;-66
2024/02/03 12:30:18;;;;;;;67.40;29.40;;;19.50;56.90;;;;;;5024406;28;20881;-65
2024/02/03 12:32:45;;;;;;;65.20;29.02;;;19.50;57.50;;;;;;5024853;28;20287;-66
2024/02/03 12:35:11;;;;;;;62.17;28.05;;;19.50;58.40;;;;;;5021882;28;20029;-66
2024/02/03 12:37:37;;;;;;;64.22;28.67;;;19.40;56.60;;;;;;5027243;28;20029;-67
2024/02/03 12:40:03;;;;;;;55.70;27.20;;;19.40;55.80;;;;;;5022550;28;20473;-67